createdAt,value
2017-08-26T00:00:51.971Z,0
2017-08-26T00:02:04.595Z,0
2017-08-26T00:03:17.176Z,0
2017-08-26T00:04:29.453Z,0
2017-08-26T00:05:42.158Z,0
2017-08-26T00:06:54.078Z,0
2017-08-26T00:08:06.650Z,0
2017-08-26T00:09:18.622Z,0
2017-08-26T00:10:30.896Z,0
2017-08-26T00:11:43.485Z,0
2017-08-26T00:12:56.047Z,0
2017-08-26T00:14:08.376Z,0
2017-08-26T00:15:20.979Z,0
2017-08-26T00:16:33.635Z,0
2017-08-26T00:17:46.255Z,0
2017-08-26T00:18:58.238Z,0
2017-08-26T00:20:10.766Z,0
2017-08-26T00:21:23.012Z,0
2017-08-26T00:22:35.631Z,0
2017-08-26T00:23:47.902Z,0
2017-08-26T00:25:00.554Z,0
2017-08-26T00:26:12.500Z,0
2017-08-26T00:27:24.802Z,0
2017-08-26T00:28:37.130Z,0
2017-08-26T00:29:49.719Z,0
2017-08-26T00:31:02.248Z,0
2017-08-26T00:32:14.810Z,0
2017-08-26T00:33:27.373Z,0
2017-08-26T00:34:39.991Z,0
2017-08-26T00:35:51.912Z,0
2017-08-26T00:37:04.467Z,0
2017-08-26T00:38:16.774Z,0
2017-08-26T00:39:29.360Z,0
2017-08-26T00:40:41.991Z,0
2017-08-26T00:41:54.601Z,0
2017-08-26T00:43:06.875Z,0
2017-08-26T00:44:19.416Z,0
2017-08-26T00:45:32.030Z,0
2017-08-26T00:46:44.633Z,0
2017-08-26T00:47:57.229Z,0
2017-08-26T00:49:09.775Z,0
2017-08-26T00:50:22.045Z,0
2017-08-26T00:51:33.682Z,0
2017-08-26T00:52:45.922Z,0
2017-08-26T00:53:58.205Z,0
2017-08-26T00:55:10.820Z,0
2017-08-26T00:56:23.375Z,0
2017-08-26T00:57:35.625Z,0
2017-08-26T00:58:48.256Z,0
2017-08-26T01:00:01.092Z,0
2017-08-26T01:01:13.409Z,0
2017-08-26T01:02:26.030Z,0
2017-08-26T01:03:38.007Z,0
2017-08-26T01:04:49.667Z,0
2017-08-26T01:06:02.219Z,0
2017-08-26T01:07:14.776Z,0
2017-08-26T01:08:27.305Z,0
2017-08-26T01:09:39.636Z,0
2017-08-26T01:10:51.876Z,0
2017-08-26T01:12:04.517Z,0
2017-08-26T01:13:16.418Z,0
2017-08-26T01:14:28.708Z,0
2017-08-26T01:15:41.216Z,0
2017-08-26T01:16:53.922Z,0
2017-08-26T01:18:06.444Z,0
2017-08-26T01:19:19.007Z,0
2017-08-26T01:20:31.586Z,0
2017-08-26T01:21:44.412Z,0
2017-08-26T01:22:56.632Z,0
2017-08-26T01:24:09.225Z,0
2017-08-26T01:25:21.768Z,0
2017-08-26T01:26:34.393Z,0
2017-08-26T01:27:46.677Z,0
2017-08-26T01:28:59.261Z,0
2017-08-26T01:30:11.512Z,0
2017-08-26T01:31:23.824Z,0
2017-08-26T01:32:36.055Z,0
2017-08-26T01:33:48.698Z,0
2017-08-26T01:35:00.970Z,0
2017-08-26T01:36:13.569Z,0
2017-08-26T01:37:26.190Z,0
2017-08-26T01:38:38.756Z,0
2017-08-26T01:39:51.365Z,0
2017-08-26T01:41:04.044Z,0
2017-08-26T01:42:16.014Z,0
2017-08-26T01:43:28.280Z,0
2017-08-26T01:44:40.833Z,0
2017-08-26T01:45:53.156Z,0
2017-08-26T01:47:05.425Z,0
2017-08-26T01:48:18.128Z,0
2017-08-26T01:49:30.688Z,0
2017-08-26T01:50:43.285Z,0
2017-08-26T01:51:55.854Z,0
2017-08-26T01:53:08.124Z,0
2017-08-26T01:54:20.643Z,0
2017-08-26T01:55:32.952Z,0
2017-08-26T01:56:45.205Z,0
2017-08-26T01:57:57.829Z,0
2017-08-26T01:59:10.472Z,0
2017-08-26T02:00:23.124Z,0
2017-08-26T02:01:35.718Z,0
2017-08-26T02:02:48.284Z,0
2017-08-26T02:04:00.215Z,0
2017-08-26T02:05:13.051Z,0
2017-08-26T02:06:25.331Z,0
2017-08-26T02:07:37.621Z,0
2017-08-26T02:08:49.937Z,0
2017-08-26T02:10:02.157Z,0
2017-08-26T02:11:14.760Z,0
2017-08-26T02:12:27.072Z,0
2017-08-26T02:13:39.682Z,0
2017-08-26T02:14:51.646Z,0
2017-08-26T02:16:03.935Z,0
2017-08-26T02:17:16.515Z,0
2017-08-26T02:18:28.805Z,0
2017-08-26T02:19:41.064Z,0
2017-08-26T02:20:53.693Z,0
2017-08-26T02:22:05.942Z,0
2017-08-26T02:23:18.216Z,0
2017-08-26T02:24:30.480Z,0
2017-08-26T02:25:43.051Z,0
2017-08-26T02:26:55.660Z,0
2017-08-26T02:28:07.978Z,0
2017-08-26T02:29:20.269Z,0
2017-08-26T02:30:32.857Z,0
2017-08-26T02:31:45.179Z,0
2017-08-26T02:32:57.753Z,0
2017-08-26T02:34:09.763Z,0
2017-08-26T02:35:22.369Z,0
2017-08-26T02:36:34.603Z,0
2017-08-26T02:37:47.466Z,0
2017-08-26T02:39:00.084Z,0
2017-08-26T02:40:12.323Z,0
2017-08-26T02:41:24.620Z,0
2017-08-26T02:42:37.191Z,0
2017-08-26T02:43:49.808Z,0
2017-08-26T02:45:02.405Z,0
2017-08-26T02:46:14.026Z,0
2017-08-26T02:47:26.358Z,0
2017-08-26T02:48:38.654Z,0
2017-08-26T02:49:51.288Z,0
2017-08-26T02:51:03.526Z,0
2017-08-26T02:52:15.487Z,0
2017-08-26T02:53:27.750Z,0
2017-08-26T02:54:40.327Z,0
2017-08-26T02:55:52.960Z,0
2017-08-26T02:57:04.917Z,0
2017-08-26T02:58:17.482Z,0
2017-08-26T02:59:29.759Z,0
2017-08-26T03:00:42.350Z,0
2017-08-26T03:01:54.637Z,0
2017-08-26T03:03:07.190Z,0
2017-08-26T03:04:19.820Z,0
2017-08-26T03:05:32.124Z,0
2017-08-26T03:06:44.734Z,0
2017-08-26T03:07:57.005Z,0
2017-08-26T03:09:09.250Z,0
2017-08-26T03:10:21.589Z,0
2017-08-26T03:11:34.173Z,0
2017-08-26T03:12:46.489Z,0
2017-08-26T03:13:58.742Z,0
2017-08-26T03:15:11.329Z,0
2017-08-26T03:16:23.882Z,0
2017-08-26T03:17:36.217Z,0
2017-08-26T03:18:48.823Z,0
2017-08-26T03:20:01.096Z,0
2017-08-26T03:21:13.961Z,0
2017-08-26T03:22:26.211Z,0
2017-08-26T03:23:38.809Z,0
2017-08-26T03:24:51.062Z,0
2017-08-26T03:26:03.284Z,0
2017-08-26T03:27:15.870Z,0
2017-08-26T03:28:28.461Z,0
2017-08-26T03:29:40.800Z,0
2017-08-26T03:30:53.047Z,0
2017-08-26T03:32:05.016Z,0
2017-08-26T03:33:16.949Z,0
2017-08-26T03:34:29.595Z,0
2017-08-26T03:35:42.204Z,0
2017-08-26T03:36:54.502Z,0
2017-08-26T03:38:06.723Z,0
2017-08-26T03:39:18.681Z,0
2017-08-26T03:40:31.248Z,0
2017-08-26T03:41:43.799Z,0
2017-08-26T03:42:55.734Z,0
2017-08-26T03:44:08.310Z,0
2017-08-26T03:45:20.868Z,0
2017-08-26T03:46:33.450Z,0
2017-08-26T03:47:46.065Z,0
2017-08-26T03:48:58.049Z,0
2017-08-26T03:50:10.322Z,0
2017-08-26T03:51:22.852Z,0
2017-08-26T03:52:35.129Z,0
2017-08-26T03:53:47.508Z,0
2017-08-26T03:54:59.755Z,0
2017-08-26T03:56:12.036Z,0
2017-08-26T03:57:24.662Z,0
2017-08-26T03:58:37.244Z,0
2017-08-26T03:59:49.871Z,5
2017-08-26T04:01:01.817Z,5
2017-08-26T04:02:14.127Z,5
2017-08-26T04:03:26.084Z,5
2017-08-26T04:04:38.649Z,5
2017-08-26T04:05:50.918Z,5
2017-08-26T04:07:03.166Z,5
2017-08-26T04:08:15.464Z,5
2017-08-26T04:09:27.703Z,10
2017-08-26T04:10:40.278Z,10
2017-08-26T04:11:52.543Z,10
2017-08-26T04:13:04.795Z,10
2017-08-26T04:14:17.084Z,15
2017-08-26T04:15:29.367Z,15
2017-08-26T04:16:42.038Z,15
2017-08-26T04:17:54.682Z,20
2017-08-26T04:19:07.345Z,20
2017-08-26T04:20:19.994Z,25
2017-08-26T04:21:32.543Z,25
2017-08-26T04:22:45.135Z,25
2017-08-26T04:23:57.714Z,30
2017-08-26T04:25:10.044Z,30
2017-08-26T04:26:23.026Z,35
2017-08-26T04:27:35.599Z,35
2017-08-26T04:28:48.174Z,40
2017-08-26T04:30:00.805Z,40
2017-08-26T04:31:13.023Z,40
2017-08-26T04:32:25.649Z,40
2017-08-26T04:33:37.973Z,45
2017-08-26T04:34:50.309Z,45
2017-08-26T04:36:02.561Z,45
2017-08-26T04:37:15.167Z,50
2017-08-26T04:38:27.789Z,50
2017-08-26T04:39:40.299Z,55
2017-08-26T04:40:52.262Z,55
2017-08-26T04:42:04.810Z,55
2017-08-26T04:43:17.097Z,55
2017-08-26T04:44:29.711Z,60
2017-08-26T04:45:42.351Z,65
2017-08-26T04:46:54.948Z,65
2017-08-26T04:48:07.297Z,65
2017-08-26T04:49:19.613Z,70
2017-08-26T04:50:32.245Z,70
2017-08-26T04:51:44.834Z,75
2017-08-26T04:52:56.455Z,75
2017-08-26T04:54:08.440Z,75
2017-08-26T04:55:21.046Z,80
2017-08-26T04:56:33.281Z,80
2017-08-26T04:57:45.834Z,85
2017-08-26T04:58:58.726Z,90
2017-08-26T05:00:11.286Z,95
2017-08-26T05:01:23.889Z,95
2017-08-26T05:02:36.434Z,95
2017-08-26T05:03:49.010Z,95
2017-08-26T05:05:01.579Z,95
2017-08-26T05:06:13.546Z,100
2017-08-26T05:07:26.127Z,100
2017-08-26T05:08:38.413Z,105
2017-08-26T05:09:50.984Z,110
2017-08-26T05:11:03.582Z,110
2017-08-26T05:12:16.174Z,110
2017-08-26T05:13:28.776Z,110
2017-08-26T05:14:41.046Z,115
2017-08-26T05:15:53.343Z,120
2017-08-26T05:17:05.613Z,120
2017-08-26T05:18:17.926Z,120
2017-08-26T05:19:30.575Z,120
2017-08-26T05:20:43.093Z,120
2017-08-26T05:21:55.340Z,125
2017-08-26T05:23:07.571Z,130
2017-08-26T05:24:19.898Z,145
2017-08-26T05:25:32.496Z,150
2017-08-26T05:26:44.773Z,145
2017-08-26T05:27:57.317Z,145
2017-08-26T05:29:09.549Z,145
2017-08-26T05:30:21.840Z,145
2017-08-26T05:31:34.647Z,150
2017-08-26T05:32:46.911Z,160
2017-08-26T05:33:58.882Z,175
2017-08-26T05:35:11.459Z,180
2017-08-26T05:36:23.438Z,170
2017-08-26T05:37:36.075Z,165
2017-08-26T05:38:48.672Z,160
2017-08-26T05:40:01.208Z,165
2017-08-26T05:41:13.206Z,160
2017-08-26T05:42:25.491Z,165
2017-08-26T05:43:37.427Z,165
2017-08-26T05:44:49.995Z,165
2017-08-26T05:46:02.627Z,170
2017-08-26T05:47:15.215Z,185
2017-08-26T05:48:27.511Z,195
2017-08-26T05:49:40.132Z,200
2017-08-26T05:50:52.741Z,205
2017-08-26T05:52:05.331Z,210
2017-08-26T05:53:17.002Z,215
2017-08-26T05:54:29.579Z,220
2017-08-26T05:55:41.890Z,220
2017-08-26T05:56:54.489Z,225
2017-08-26T05:58:06.458Z,235
2017-08-26T05:59:19.035Z,245
2017-08-26T06:00:31.618Z,260
2017-08-26T06:01:44.238Z,285
2017-08-26T06:02:56.222Z,300
2017-08-26T06:04:09.012Z,315
2017-08-26T06:05:21.600Z,325
2017-08-26T06:06:34.210Z,320
2017-08-26T06:07:46.474Z,310
2017-08-26T06:08:57.804Z,305
2017-08-26T06:10:10.133Z,300
2017-08-26T06:11:22.697Z,295
2017-08-26T06:12:35.281Z,295
2017-08-26T06:13:47.870Z,300
2017-08-26T06:15:00.480Z,315
2017-08-26T06:16:12.754Z,315
2017-08-26T06:17:25.382Z,310
2017-08-26T06:18:37.612Z,310
2017-08-26T06:19:49.915Z,305
2017-08-26T06:21:02.526Z,290
2017-08-26T06:22:14.803Z,320
2017-08-26T06:23:27.343Z,315
2017-08-26T06:24:39.925Z,315
2017-08-26T06:25:52.738Z,335
2017-08-26T06:27:05.313Z,315
2017-08-26T06:28:17.913Z,315
2017-08-26T06:29:30.526Z,320
2017-08-26T06:30:43.122Z,310
2017-08-26T06:31:55.747Z,340
2017-08-26T06:33:08.007Z,330
2017-08-26T06:34:20.682Z,375
2017-08-26T06:35:33.342Z,405
2017-08-26T06:36:45.280Z,400
2017-08-26T06:37:57.572Z,425
2017-08-26T06:39:10.215Z,435
2017-08-26T06:40:22.850Z,440
2017-08-26T06:41:35.494Z,455
2017-08-26T06:42:47.775Z,475
2017-08-26T06:44:00.074Z,510
2017-08-26T06:45:12.326Z,545
2017-08-26T06:46:24.609Z,575
2017-08-26T06:47:37.183Z,560
2017-08-26T06:48:49.452Z,505
2017-08-26T06:50:01.746Z,430
2017-08-26T06:51:14.292Z,365
2017-08-26T06:52:26.865Z,395
2017-08-26T06:53:39.495Z,440
2017-08-26T06:54:52.146Z,455
2017-08-26T06:56:04.667Z,470
2017-08-26T06:57:17.247Z,495
2017-08-26T06:58:29.833Z,455
2017-08-26T06:59:42.372Z,545
2017-08-26T07:00:54.934Z,475
2017-08-26T07:02:06.933Z,500
2017-08-26T07:03:18.940Z,475
2017-08-26T07:04:31.195Z,525
2017-08-26T07:05:43.802Z,415
2017-08-26T07:06:56.419Z,410
2017-08-26T07:08:08.742Z,415
2017-08-26T07:09:21.356Z,385
2017-08-26T07:10:33.683Z,345
2017-08-26T07:11:45.985Z,335
2017-08-26T07:12:58.567Z,340
2017-08-26T07:14:11.396Z,355
2017-08-26T07:15:24.030Z,385
2017-08-26T07:16:36.353Z,410
2017-08-26T07:17:48.676Z,425
2017-08-26T07:19:00.992Z,450
2017-08-26T07:20:13.343Z,470
2017-08-26T07:21:25.573Z,495
2017-08-26T07:22:37.578Z,515
2017-08-26T07:23:49.850Z,525
2017-08-26T07:25:02.146Z,550
2017-08-26T07:26:14.808Z,590
2017-08-26T07:27:27.167Z,715
2017-08-26T07:28:39.763Z,695
2017-08-26T07:29:52.329Z,675
2017-08-26T07:31:04.923Z,625
2017-08-26T07:32:17.509Z,660
2017-08-26T07:33:30.164Z,620
2017-08-26T07:34:42.403Z,640
2017-08-26T07:35:54.655Z,710
2017-08-26T07:37:06.694Z,730
2017-08-26T07:38:19.233Z,765
2017-08-26T07:39:31.904Z,630
2017-08-26T07:40:44.502Z,645
2017-08-26T07:41:57.415Z,650
2017-08-26T07:43:09.694Z,660
2017-08-26T07:44:22.325Z,665
2017-08-26T07:45:34.971Z,675
2017-08-26T07:46:47.193Z,685
2017-08-26T07:47:59.148Z,685
2017-08-26T07:49:11.458Z,715
2017-08-26T07:50:23.695Z,650
2017-08-26T07:51:36.330Z,605
2017-08-26T07:52:48.899Z,560
2017-08-26T07:54:01.515Z,485
2017-08-26T07:55:13.822Z,450
2017-08-26T07:56:26.366Z,450
2017-08-26T07:57:38.977Z,445
2017-08-26T07:58:51.551Z,430
2017-08-26T08:00:03.886Z,425
2017-08-26T08:01:16.218Z,410
2017-08-26T08:02:28.760Z,410
2017-08-26T08:03:41.091Z,410
2017-08-26T08:04:53.361Z,435
2017-08-26T08:06:05.664Z,450
2017-08-26T08:07:17.932Z,450
2017-08-26T08:08:29.929Z,445
2017-08-26T08:09:42.145Z,430
2017-08-26T08:10:54.754Z,410
2017-08-26T08:12:07.382Z,385
2017-08-26T08:13:19.026Z,365
2017-08-26T08:14:31.515Z,345
2017-08-26T08:15:43.841Z,330
2017-08-26T08:16:56.060Z,320
2017-08-26T08:18:08.631Z,305
2017-08-26T08:19:21.238Z,295
2017-08-26T08:20:33.476Z,285
2017-08-26T08:21:45.483Z,285
2017-08-26T08:22:58.070Z,285
2017-08-26T08:24:10.670Z,285
2017-08-26T08:25:22.962Z,270
2017-08-26T08:26:35.574Z,260
2017-08-26T08:27:47.486Z,260
2017-08-26T08:28:59.737Z,270
2017-08-26T08:30:12.013Z,285
2017-08-26T08:31:24.286Z,300
2017-08-26T08:32:36.894Z,350
2017-08-26T08:33:49.158Z,435
2017-08-26T08:35:01.750Z,510
2017-08-26T08:36:14.388Z,570
2017-08-26T08:37:26.684Z,585
2017-08-26T08:38:38.921Z,595
2017-08-26T08:39:50.917Z,620
2017-08-26T08:41:03.503Z,610
2017-08-26T08:42:16.116Z,520
2017-08-26T08:43:28.670Z,450
2017-08-26T08:44:40.983Z,460
2017-08-26T08:45:52.931Z,505
2017-08-26T08:47:05.301Z,530
2017-08-26T08:48:17.905Z,570
2017-08-26T08:49:30.164Z,585
2017-08-26T08:50:42.434Z,595
2017-08-26T08:51:54.367Z,570
2017-08-26T08:53:06.939Z,500
2017-08-26T08:54:19.227Z,470
2017-08-26T08:55:31.444Z,490
2017-08-26T08:56:44.016Z,500
2017-08-26T08:57:55.945Z,505
2017-08-26T08:59:08.554Z,520
2017-08-26T09:00:20.879Z,580
2017-08-26T09:01:33.552Z,600
2017-08-26T09:02:45.893Z,590
2017-08-26T09:03:58.515Z,580
2017-08-26T09:05:11.136Z,525
2017-08-26T09:06:23.406Z,530
2017-08-26T09:07:35.999Z,585
2017-08-26T09:08:48.601Z,640
2017-08-26T09:10:01.180Z,690
2017-08-26T09:11:13.793Z,755
2017-08-26T09:12:26.110Z,810
2017-08-26T09:13:38.757Z,845
2017-08-26T09:14:51.380Z,860
2017-08-26T09:16:03.674Z,865
2017-08-26T09:17:16.033Z,895
2017-08-26T09:18:28.646Z,955
2017-08-26T09:19:41.487Z,995
2017-08-26T09:20:54.089Z,915
2017-08-26T09:22:06.729Z,740
2017-08-26T09:23:19.380Z,725
2017-08-26T09:24:31.338Z,750
2017-08-26T09:25:43.911Z,840
2017-08-26T09:26:56.471Z,870
2017-08-26T09:28:08.481Z,840
2017-08-26T09:29:21.127Z,815
2017-08-26T09:30:33.719Z,815
2017-08-26T09:31:45.697Z,785
2017-08-26T09:32:58.000Z,735
2017-08-26T09:34:09.920Z,670
2017-08-26T09:35:22.203Z,635
2017-08-26T09:36:34.812Z,625
2017-08-26T09:37:47.415Z,625
2017-08-26T09:38:59.365Z,600
2017-08-26T09:40:11.587Z,575
2017-08-26T09:41:23.905Z,565
2017-08-26T09:42:36.449Z,585
2017-08-26T09:43:49.043Z,625
2017-08-26T09:45:01.695Z,640
2017-08-26T09:46:14.267Z,620
2017-08-26T09:47:26.584Z,605
2017-08-26T09:48:39.258Z,615
2017-08-26T09:49:51.547Z,630
2017-08-26T09:51:03.799Z,655
2017-08-26T09:52:16.431Z,690
2017-08-26T09:53:28.995Z,705
2017-08-26T09:54:41.580Z,685
2017-08-26T09:55:54.201Z,670
2017-08-26T09:57:06.802Z,680
2017-08-26T09:58:19.060Z,695
2017-08-26T09:59:31.648Z,705
2017-08-26T10:00:44.239Z,670
2017-08-26T10:01:56.206Z,620
2017-08-26T10:03:08.841Z,610
2017-08-26T10:04:21.429Z,605
2017-08-26T10:05:34.033Z,645
2017-08-26T10:06:46.310Z,675
2017-08-26T10:07:58.531Z,620
2017-08-26T10:09:11.063Z,575
2017-08-26T10:10:23.662Z,550
2017-08-26T10:11:36.301Z,545
2017-08-26T10:12:48.565Z,565
2017-08-26T10:14:01.116Z,585
2017-08-26T10:15:13.738Z,605
2017-08-26T10:16:26.277Z,635
2017-08-26T10:17:38.899Z,645
2017-08-26T10:18:51.535Z,650
2017-08-26T10:20:03.855Z,735
2017-08-26T10:21:16.434Z,900
2017-08-26T10:22:28.486Z,965
2017-08-26T10:23:41.075Z,835
2017-08-26T10:24:53.058Z,810
2017-08-26T10:26:05.316Z,800
2017-08-26T10:27:16.939Z,815
2017-08-26T10:28:29.511Z,850
2017-08-26T10:29:41.477Z,845
2017-08-26T10:30:54.060Z,855
2017-08-26T10:32:06.347Z,855
2017-08-26T10:33:18.943Z,810
2017-08-26T10:34:31.520Z,725
2017-08-26T10:35:43.807Z,660
2017-08-26T10:36:56.055Z,640
2017-08-26T10:38:07.997Z,625
2017-08-26T10:39:20.544Z,635
2017-08-26T10:40:32.806Z,660
2017-08-26T10:41:45.451Z,1055
2017-08-26T10:42:57.733Z,940
2017-08-26T10:44:10.053Z,1040
2017-08-26T10:45:21.752Z,2380
2017-08-26T10:46:34.349Z,2535
2017-08-26T10:47:46.656Z,2190
2017-08-26T10:48:58.612Z,2220
2017-08-26T10:50:11.196Z,2025
2017-08-26T10:51:23.449Z,1535
2017-08-26T10:52:36.009Z,2270
2017-08-26T10:53:48.593Z,1725
2017-08-26T10:55:00.846Z,1995
2017-08-26T10:56:13.432Z,2210
2017-08-26T10:57:26.009Z,1300
2017-08-26T10:58:38.673Z,1090
2017-08-26T10:59:50.393Z,1115
2017-08-26T11:01:03.118Z,1195
2017-08-26T11:02:15.711Z,1265
2017-08-26T11:03:28.312Z,1495
2017-08-26T11:04:40.926Z,1910
2017-08-26T11:05:53.500Z,1660
2017-08-26T11:07:05.745Z,1640
2017-08-26T11:08:18.289Z,1655
2017-08-26T11:09:30.522Z,2470
2017-08-26T11:10:43.172Z,2985
2017-08-26T11:11:55.517Z,2165
2017-08-26T11:13:08.024Z,1370
2017-08-26T11:14:19.953Z,1730
2017-08-26T11:15:32.594Z,1915
2017-08-26T11:16:45.235Z,1475
2017-08-26T11:17:57.529Z,1665
2017-08-26T11:19:09.840Z,2070
2017-08-26T11:20:22.122Z,1900
2017-08-26T11:21:34.777Z,1415
2017-08-26T11:22:47.439Z,1270
2017-08-26T11:23:59.056Z,1195
2017-08-26T11:25:11.630Z,1445
2017-08-26T11:26:23.573Z,1735
2017-08-26T11:27:36.212Z,1495
2017-08-26T11:28:48.489Z,1275
2017-08-26T11:30:00.135Z,1060
2017-08-26T11:31:12.687Z,940
2017-08-26T11:32:25.254Z,920
2017-08-26T11:33:37.512Z,920
2017-08-26T11:34:50.136Z,885
2017-08-26T11:36:02.755Z,860
2017-08-26T11:37:14.112Z,950
2017-08-26T11:38:26.757Z,1130
2017-08-26T11:39:39.082Z,1120
2017-08-26T11:40:51.577Z,1140
2017-08-26T11:42:03.542Z,1055
2017-08-26T11:43:15.828Z,1080
2017-08-26T11:44:28.192Z,1105
2017-08-26T11:45:40.806Z,955
2017-08-26T11:46:52.449Z,885
2017-08-26T11:48:04.706Z,840
2017-08-26T11:49:17.333Z,1395
2017-08-26T11:50:29.548Z,2800
2017-08-26T11:51:42.134Z,2510
2017-08-26T11:52:54.433Z,2955
2017-08-26T11:54:06.687Z,3215
2017-08-26T11:55:18.951Z,2825
2017-08-26T11:56:30.965Z,2645
2017-08-26T11:57:43.535Z,2910
2017-08-26T11:58:55.813Z,2900
2017-08-26T12:00:08.083Z,2975
2017-08-26T12:01:20.403Z,2430
2017-08-26T12:02:32.269Z,1750
2017-08-26T12:03:44.849Z,995
2017-08-26T12:04:57.410Z,850
2017-08-26T12:06:10.011Z,820
2017-08-26T12:07:22.333Z,860
2017-08-26T12:08:34.929Z,795
2017-08-26T12:09:47.542Z,870
2017-08-26T12:11:00.229Z,885
2017-08-26T12:12:12.233Z,865
2017-08-26T12:13:24.837Z,770
2017-08-26T12:14:37.490Z,800
2017-08-26T12:15:49.731Z,930
2017-08-26T12:17:02.347Z,830
2017-08-26T12:18:14.610Z,730
2017-08-26T12:19:26.912Z,830
2017-08-26T12:20:39.453Z,705
2017-08-26T12:21:51.750Z,750
2017-08-26T12:23:03.444Z,830
2017-08-26T12:24:16.057Z,1545
2017-08-26T12:25:28.311Z,1120
2017-08-26T12:26:40.931Z,920
2017-08-26T12:27:52.578Z,805
2017-08-26T12:29:04.828Z,770
2017-08-26T12:30:16.795Z,1175
2017-08-26T12:31:28.749Z,1100
2017-08-26T12:32:41.367Z,1045
2017-08-26T12:33:53.654Z,2015
2017-08-26T12:35:05.907Z,1175
2017-08-26T12:36:18.532Z,1105
2017-08-26T12:37:31.080Z,1115
2017-08-26T12:38:43.436Z,1110
2017-08-26T12:39:55.073Z,1005
2017-08-26T12:41:07.711Z,830
2017-08-26T12:42:20.303Z,735
2017-08-26T12:43:32.904Z,710
2017-08-26T12:44:45.196Z,730
2017-08-26T12:45:57.543Z,770
2017-08-26T12:47:09.866Z,780
2017-08-26T12:48:22.501Z,810
2017-08-26T12:49:34.799Z,845
2017-08-26T12:50:47.407Z,820
2017-08-26T12:52:00.096Z,785
2017-08-26T12:53:12.102Z,770
2017-08-26T12:54:24.668Z,770
2017-08-26T12:55:36.987Z,785
2017-08-26T12:56:49.548Z,785
2017-08-26T12:58:02.149Z,780
2017-08-26T12:59:14.719Z,810
2017-08-26T13:00:27.338Z,1045
2017-08-26T13:01:39.985Z,1100
2017-08-26T13:02:52.586Z,990
2017-08-26T13:04:04.896Z,890
2017-08-26T13:05:16.867Z,870
2017-08-26T13:06:29.130Z,910
2017-08-26T13:07:41.423Z,935
2017-08-26T13:08:53.708Z,910
2017-08-26T13:10:06.000Z,905
2017-08-26T13:11:18.288Z,960
2017-08-26T13:12:30.597Z,1145
2017-08-26T13:13:42.889Z,1210
2017-08-26T13:14:55.182Z,1150
2017-08-26T13:16:07.427Z,1085
2017-08-26T13:17:20.005Z,1045
2017-08-26T13:18:32.350Z,980
2017-08-26T13:19:44.975Z,1025
2017-08-26T13:20:57.536Z,1035
2017-08-26T13:22:10.122Z,965
2017-08-26T13:23:22.444Z,930
2017-08-26T13:24:34.448Z,915
2017-08-26T13:25:47.104Z,865
2017-08-26T13:26:59.694Z,795
2017-08-26T13:28:12.315Z,680
2017-08-26T13:29:24.622Z,580
2017-08-26T13:30:36.896Z,555
2017-08-26T13:31:49.520Z,605
2017-08-26T13:33:02.147Z,705
2017-08-26T13:34:14.773Z,740
2017-08-26T13:35:27.112Z,755
2017-08-26T13:36:39.441Z,825
2017-08-26T13:37:52.011Z,910
2017-08-26T13:39:04.321Z,1005
2017-08-26T13:40:16.286Z,1005
2017-08-26T13:41:28.868Z,1025
2017-08-26T13:42:41.524Z,1010
2017-08-26T13:43:53.477Z,790
2017-08-26T13:45:05.496Z,675
2017-08-26T13:46:18.172Z,675
2017-08-26T13:47:30.765Z,725
2017-08-26T13:48:43.311Z,770
2017-08-26T13:49:55.836Z,795
2017-08-26T13:51:08.477Z,825
2017-08-26T13:52:21.146Z,830
2017-08-26T13:53:33.392Z,960
2017-08-26T13:54:45.719Z,1010
2017-08-26T13:55:58.309Z,890
2017-08-26T13:57:10.907Z,840
2017-08-26T13:58:23.555Z,785
2017-08-26T13:59:36.177Z,705
2017-08-26T14:00:48.484Z,630
2017-08-26T14:02:01.076Z,665
2017-08-26T14:03:13.694Z,775
2017-08-26T14:04:26.332Z,650
2017-08-26T14:05:38.623Z,580
2017-08-26T14:06:50.912Z,490
2017-08-26T14:08:03.191Z,470
2017-08-26T14:09:15.814Z,510
2017-08-26T14:10:28.134Z,555
2017-08-26T14:11:40.750Z,570
2017-08-26T14:12:53.411Z,565
2017-08-26T14:14:05.982Z,565
2017-08-26T14:15:18.556Z,620
2017-08-26T14:16:31.155Z,725
2017-08-26T14:17:43.779Z,755
2017-08-26T14:18:56.054Z,700
2017-08-26T14:20:08.022Z,660
2017-08-26T14:21:20.280Z,690
2017-08-26T14:22:32.614Z,685
2017-08-26T14:23:45.434Z,685
2017-08-26T14:24:57.686Z,720
2017-08-26T14:26:09.954Z,800
2017-08-26T14:27:22.598Z,860
2017-08-26T14:28:35.266Z,840
2017-08-26T14:29:47.548Z,830
2017-08-26T14:30:59.825Z,785
2017-08-26T14:32:12.379Z,825
2017-08-26T14:33:24.667Z,875
2017-08-26T14:34:37.265Z,840
2017-08-26T14:35:49.876Z,790
2017-08-26T14:37:02.486Z,715
2017-08-26T14:38:14.782Z,650
2017-08-26T14:39:27.055Z,640
2017-08-26T14:40:39.372Z,635
2017-08-26T14:41:51.660Z,620
2017-08-26T14:43:04.224Z,600
2017-08-26T14:44:16.552Z,590
2017-08-26T14:45:29.158Z,620
2017-08-26T14:46:41.132Z,645
2017-08-26T14:47:53.765Z,625
2017-08-26T14:49:06.391Z,570
2017-08-26T14:50:18.691Z,535
2017-08-26T14:51:30.958Z,525
2017-08-26T14:52:43.596Z,535
2017-08-26T14:53:56.127Z,565
2017-08-26T14:55:07.752Z,565
2017-08-26T14:56:19.415Z,560
2017-08-26T14:57:32.011Z,540
2017-08-26T14:58:44.268Z,515
2017-08-26T14:59:56.860Z,500
2017-08-26T15:01:08.859Z,480
2017-08-26T15:02:21.172Z,460
2017-08-26T15:03:33.417Z,440
2017-08-26T15:04:45.693Z,450
2017-08-26T15:05:58.332Z,470
2017-08-26T15:07:10.904Z,490
2017-08-26T15:08:23.201Z,500
2017-08-26T15:09:35.519Z,470
2017-08-26T15:10:48.118Z,445
2017-08-26T15:12:00.396Z,430
2017-08-26T15:13:12.416Z,415
2017-08-26T15:14:25.068Z,415
2017-08-26T15:15:37.327Z,375
2017-08-26T15:16:49.595Z,325
2017-08-26T15:18:01.520Z,295
2017-08-26T15:19:14.145Z,305
2017-08-26T15:20:26.735Z,335
2017-08-26T15:21:39.305Z,370
2017-08-26T15:22:51.578Z,360
2017-08-26T15:24:04.222Z,310
2017-08-26T15:25:16.516Z,245
2017-08-26T15:26:28.831Z,210
2017-08-26T15:27:41.089Z,200
2017-08-26T15:28:53.691Z,195
2017-08-26T15:30:06.276Z,195
2017-08-26T15:31:18.601Z,210
2017-08-26T15:32:31.137Z,240
2017-08-26T15:33:43.104Z,295
2017-08-26T15:34:55.668Z,305
2017-08-26T15:36:07.972Z,290
2017-08-26T15:37:19.610Z,250
2017-08-26T15:38:32.195Z,195
2017-08-26T15:39:44.787Z,160
2017-08-26T15:40:57.107Z,145
2017-08-26T15:42:08.784Z,125
2017-08-26T15:43:21.379Z,110
2017-08-26T15:44:33.345Z,105
2017-08-26T15:45:45.647Z,110
2017-08-26T15:46:58.261Z,110
2017-08-26T15:48:10.228Z,110
2017-08-26T15:49:22.528Z,110
2017-08-26T15:50:34.799Z,110
2017-08-26T15:51:47.070Z,115
2017-08-26T15:52:59.664Z,125
2017-08-26T15:54:11.612Z,125
2017-08-26T15:55:23.905Z,125
2017-08-26T15:56:35.891Z,120
2017-08-26T15:57:48.400Z,100
2017-08-26T15:59:00.348Z,85
2017-08-26T16:00:12.347Z,80
2017-08-26T16:01:25.219Z,80
2017-08-26T16:02:37.526Z,105
2017-08-26T16:03:49.473Z,155
2017-08-26T16:05:02.095Z,220
2017-08-26T16:06:14.420Z,245
2017-08-26T16:07:26.813Z,270
2017-08-26T16:08:39.155Z,270
2017-08-26T16:09:50.783Z,255
2017-08-26T16:11:03.346Z,245
2017-08-26T16:12:15.891Z,245
2017-08-26T16:13:28.149Z,260
2017-08-26T16:14:40.814Z,270
2017-08-26T16:15:53.379Z,265
2017-08-26T16:17:05.356Z,250
2017-08-26T16:18:17.356Z,240
2017-08-26T16:19:29.957Z,220
2017-08-26T16:20:42.542Z,210
2017-08-26T16:21:54.874Z,230
2017-08-26T16:23:07.156Z,250
2017-08-26T16:24:19.858Z,235
2017-08-26T16:25:32.444Z,215
2017-08-26T16:26:44.432Z,200
2017-08-26T16:27:57.027Z,190
2017-08-26T16:29:08.992Z,180
2017-08-26T16:30:21.680Z,185
2017-08-26T16:31:34.285Z,175
2017-08-26T16:32:46.575Z,170
2017-08-26T16:33:59.463Z,165
2017-08-26T16:35:11.415Z,160
2017-08-26T16:36:24.097Z,155
2017-08-26T16:37:36.660Z,150
2017-08-26T16:38:49.313Z,140
2017-08-26T16:40:01.577Z,135
2017-08-26T16:41:13.529Z,135
2017-08-26T16:42:26.112Z,135
2017-08-26T16:43:38.410Z,130
2017-08-26T16:44:51.291Z,130
2017-08-26T16:46:03.281Z,135
2017-08-26T16:47:15.572Z,130
2017-08-26T16:48:28.138Z,135
2017-08-26T16:49:40.739Z,135
2017-08-26T16:50:53.302Z,130
2017-08-26T16:52:04.662Z,120
2017-08-26T16:53:17.305Z,115